Le Ponant — FGZZ — position and weather

sailwx.info

Track history (hours):
 
Tides and Currents Weather Stations Pressure Air Temp Water Temp Dewpoint Dewpoint Depression Visibility Wind Speed Wind Dir Waves Ship Positions

Le Ponant

Operator: Compangy des Iles du Ponant

Last reported at 2018-Oct-19 14:21 UTC. Time now 2018-Oct-20 02:36 UTC.
Position N 43°21' E 005°20'.

Length 89 m; draft 4.2 m.

Type: Passenger vessel. MMSI: 227186000.

Date/timePositionNaut miles runAvg speedWind from/ knotsBaromVisibWave heightAir tempDewpointWater temp
2018-Oct-19 14:21N 43°21' E 005°20'4 4.4
2018-Oct-19 13:30N 43°18' E 005°22'0 0.0
2018-Oct-19 13:03N 43°18' E 005°22'0 0.0
2018-Oct-19 13:00N 43°18' E 005°22'0 0.0
2018-Oct-19 12:24N 43°18' E 005°22'0 0.0
2018-Oct-19 11:51N 43°18' E 005°22'0 0.0
2018-Oct-19 11:22N 43°18' E 005°22'0 0.0
2018-Oct-19 11:03N 43°18' E 005°22'0 0.1
2018-Oct-19 11:00N 43°18' E 005°22'0 0.0
2018-Oct-19 10:30N 43°18' E 005°22'0 0.0
2018-Oct-19 09:52N 43°18' E 005°22'0 0.0
2018-Oct-19 09:17N 43°18' E 005°22'0 0.0
2018-Oct-19 09:01N 43°18' E 005°22'0 0.0
2018-Oct-19 08:48N 43°18' E 005°22'0 0.0
2018-Oct-19 08:25N 43°18' E 005°22'0 0.0
2018-Oct-19 07:59N 43°18' E 005°22'0 0.0
2018-Oct-19 07:30N 43°18' E 005°22'0 0.0
2018-Oct-19 07:02N 43°18' E 005°22'0 0.0
2018-Oct-19 06:59N 43°18' E 005°22'0 0.0
2018-Oct-19 06:24N 43°18' E 005°22'0 0.0
2018-Oct-19 06:03N 43°18' E 005°22'0 0.1
2018-Oct-19 05:59N 43°18' E 005°22'0 0.5
2018-Oct-19 05:30N 43°18' E 005°22'1 1.4
2018-Oct-19 05:03N 43°18' E 005°21'0 3.8
2018-Oct-19 05:00N 43°18' E 005°21'3 6.0
2018-Oct-19 04:30N 43°16' E 005°18'64 7.0
2018-Oct-18 19:21N 43°07' E 006°45'310.9
2018-Oct-18 19:02N 43°10' E 006°49'110.9
2018-Oct-18 18:59N 43°10' E 006°49'510.9
2018-Oct-18 18:30N 43°14' E 006°53'510.7
2018-Oct-18 18:03N 43°19' E 006°57'110.5
2018-Oct-18 18:00N 43°19' E 006°57'510.5
2018-Oct-18 17:30N 43°23' E 007°01'2 4.2
2018-Oct-18 17:04N 43°25' E 007°03'111.6
2018-Oct-18 17:00N 43°25' E 007°03'611.8
2018-Oct-18 16:30N 43°30' E 007°08'511.8
2018-Oct-18 16:03N 43°35' E 007°12'111.7
2018-Oct-18 16:00N 43°35' E 007°12'611.5
2018-Oct-18 15:30N 43°40' E 007°17'2 3.4
2018-Oct-18 15:00N 43°42' E 007°17'0 0.0
2018-Oct-18 14:01N 43°42' E 007°17'0 0.0
2018-Oct-18 13:58N 43°42' E 007°17'0 0.0
2018-Oct-18 13:28N 43°42' E 007°17'0 0.0
2018-Oct-18 13:00N 43°42' E 007°17'0 0.0
2018-Oct-18 12:30N 43°42' E 007°17'0 0.0
2018-Oct-18 12:00N 43°42' E 007°17'0 0.0
2018-Oct-18 11:30N 43°42' E 007°17'0 0.0
2018-Oct-18 11:03N 43°42' E 007°17'0 0.0
2018-Oct-18 11:00N 43°42' E 007°17'0 0.0
2018-Oct-18 10:30N 43°42' E 007°17'0 0.0
2018-Oct-18 10:01N 43°42' E 007°17'0 0.0
2018-Oct-18 09:58N 43°42' E 007°17'0 0.0
2018-Oct-18 09:30N 43°42' E 007°17'0 0.0
2018-Oct-18 09:03N 43°42' E 007°17'0 0.0
2018-Oct-18 08:57N 43°42' E 007°17'0 0.0
2018-Oct-18 08:30N 43°42' E 007°17'0 0.0
2018-Oct-18 08:03N 43°42' E 007°17'0 0.0
2018-Oct-18 08:00N 43°42' E 007°17'0 0.0
2018-Oct-18 07:30N 43°42' E 007°17'0 0.0
2018-Oct-18 07:03N 43°42' E 007°17'0 0.0
2018-Oct-18 07:00N 43°42' E 007°17'0 0.0
2018-Oct-18 06:30N 43°42' E 007°17'0 0.0
2018-Oct-18 06:03N 43°42' E 007°17'0 0.0
2018-Oct-18 06:00N 43°42' E 007°17'1 2.0
2018-Oct-18 05:30N 43°41' E 007°18'2 3.7
2018-Oct-18 05:03N 43°39' E 007°17'0 6.3
2018-Oct-18 05:00N 43°39' E 007°16'1 1.5
2018-Oct-18 04:30N 43°39' E 007°17'3 6.9
2018-Oct-18 04:03N 43°38' E 007°22'0 8.1
2018-Oct-18 04:00N 43°38' E 007°22'4 8.3
2018-Oct-18 03:30N 43°38' E 007°28'4 8.6
2018-Oct-18 03:03N 43°38' E 007°33'0 8.6
2018-Oct-18 03:00N 43°38' E 007°34'4 8.5
2018-Oct-18 02:30N 43°38' E 007°40'4 8.4
2018-Oct-18 02:03N 43°36' E 007°45'0 8.3
2018-Oct-18 02:00N 43°36' E 007°45'5 9.8
2018-Oct-18 01:30N 43°35' E 007°52'511.2
2018-Oct-18 01:03N 43°33' E 007°58'110.9
2018-Oct-18 01:00N 43°33' E 007°59'510.6
2018-Oct-18 00:30N 43°32' E 008°06'510.5
2018-Oct-18 00:03N 43°30' E 008°12'110.4
2018-Oct-18 00:00N 43°30' E 008°13'510.4
2018-Oct-17 23:30N 43°29' E 008°20'510.1
2018-Oct-17 23:03N 43°28' E 008°26'110.2
2018-Oct-17 22:59N 43°28' E 008°27'510.1
2018-Oct-17 22:29N 43°28' E 008°34'410.0
2018-Oct-17 22:03N 43°27' E 008°40'110.2
2018-Oct-17 22:00N 43°27' E 008°41'510.3
2018-Oct-17 21:30N 43°26' E 008°48'510.7
2018-Oct-17 21:03N 43°25' E 008°54'110.7
2018-Oct-17 21:00N 43°25' E 008°55'510.7
2018-Oct-17 20:30N 43°24' E 009°02'510.7
2018-Oct-17 20:03N 43°24' E 009°08'110.7
2018-Oct-17 20:00N 43°23' E 009°09'510.9
2018-Oct-17 19:30N 43°22' E 009°17'511.1
2018-Oct-17 19:03N 43°22' E 009°23'111.1
2018-Oct-17 19:00N 43°22' E 009°24'611.0
2018-Oct-17 18:30N 43°21' E 009°32'910.8
2018-Oct-17 17:38N 43°16' E 009°43'111.1
2018-Oct-17 17:30N 43°15' E 009°44'511.0
2018-Oct-17 17:02N 43°12' E 009°50'010.9
2018-Oct-17 17:00N 43°12' E 009°51'510.7
2018-Oct-17 16:30N 43°09' E 009°57'26 2.4
2018-Oct-17 05:42N 42°49' E 010°20'0 2.3
2018-Oct-17 05:31N 42°49' E 010°20'5 6.5
2018-Oct-17 04:45N 42°52' E 010°15'2 7.4
2018-Oct-17 04:29N 42°52' E 010°13'8 9.2
2018-Oct-17 03:37N 42°52' E 010°02'110.9
2018-Oct-17 03:30N 42°51' E 010°01'5510.5
2018-Oct-16 22:19N 41°58' E 009°43'310.0
2018-Oct-16 22:03N 41°55' E 009°42'110.0
2018-Oct-16 21:59N 41°54' E 009°42'193 4.2
2018-Oct-14 23:49N 40°38' E 013°37'2 7.2
2018-Oct-14 23:29N 40°37' E 013°40'3 7.4
2018-Oct-14 23:03N 40°35' E 013°44'0 7.2
2018-Oct-14 22:59N 40°35' E 013°44'4 7.5
2018-Oct-14 22:30N 40°33' E 013°49'2 3.9
2018-Oct-14 22:04N 40°33' E 013°51'0 1.8
2018-Oct-14 22:00N 40°33' E 013°51'3 6.5
2018-Oct-14 21:30N 40°31' E 013°54'3 7.0
2018-Oct-14 21:03N 40°30' E 013°58'0 7.3
2018-Oct-14 21:00N 40°30' E 013°59'6 7.9
2018-Oct-14 20:18N 40°27' E 014°05'2 8.5
2018-Oct-14 20:03N 40°26' E 014°08'1 8.3
2018-Oct-14 19:58N 40°26' E 014°09'4 8.0
2018-Oct-14 19:30N 40°25' E 014°13'3 7.6
2018-Oct-14 19:03N 40°27' E 014°17'0 7.7
2018-Oct-14 19:00N 40°27' E 014°18'4 7.8
2018-Oct-14 18:30N 40°29' E 014°22'3 7.2
2018-Oct-14 18:03N 40°31' E 014°25'0 7.5
2018-Oct-14 18:00N 40°31' E 014°26'4 7.4
2018-Oct-14 17:30N 40°34' E 014°28'3 6.7
2018-Oct-14 17:03N 40°37' E 014°30'0 4.6
2018-Oct-14 17:00N 40°37' E 014°30'3 5.1
2018-Oct-14 16:25N 40°37' E 014°34'2 0.2
2018-Oct-14 06:37N 40°37' E 014°36'0 3.9
2018-Oct-14 06:30N 40°36' E 014°36'510.3
2018-Oct-14 06:03N 40°32' E 014°38'110.2
2018-Oct-14 06:00N 40°31' E 014°38'7 9.7
2018-Oct-14 05:18N 40°25' E 014°40'3 9.0
2018-Oct-14 04:59N 40°22' E 014°41'510.3
2018-Oct-14 04:28N 40°17' E 014°43'95 7.0
2018-Oct-13 14:56N 38°45' E 015°17'0 0.8
2018-Oct-13 14:23N 38°45' E 015°17'3 6.4
2018-Oct-13 13:57N 38°44' E 015°14'510.6
2018-Oct-13 13:29N 38°40' E 015°10'510.6
2018-Oct-13 13:03N 38°36' E 015°06'110.7
2018-Oct-13 12:58N 38°36' E 015°06'510.3
2018-Oct-13 12:27N 38°31' E 015°02'5 1.2
2018-Oct-13 08:28N 38°28' E 014°58'0 0.0
2018-Oct-13 07:41N 38°28' E 014°58'0 0.0
2018-Oct-13 05:51N 38°28' E 014°58'0 0.4
2018-Oct-13 05:30N 38°28' E 014°58'3 3.8
2018-Oct-13 04:43N 38°27' E 015°01'3 4.7
2018-Oct-13 04:07N 38°27' E 015°05'1 4.7
2018-Oct-13 03:55N 38°27' E 015°06'2 4.4
2018-Oct-13 03:30N 38°26' E 015°08'1 2.5
2018-Oct-13 03:01N 38°26' E 015°07'0 3.5
2018-Oct-13 03:00N 38°26' E 015°07'0 0.6
2018-Oct-13 02:29N 38°26' E 015°07'2 4.1
2018-Oct-13 02:01N 38°26' E 015°09'0 4.1
2018-Oct-13 01:58N 38°26' E 015°10'2 4.0
2018-Oct-13 01:28N 38°25' E 015°12'2 4.0
2018-Oct-13 00:57N 38°25' E 015°15'2 3.8
2018-Oct-13 00:27N 38°24' E 015°17'2 4.1
2018-Oct-13 00:03N 38°24' E 015°19'0 4.3
2018-Oct-13 00:00N 38°24' E 015°19'2 4.4
2018-Oct-12 23:30N 38°23' E 015°22'2 4.1
2018-Oct-12 23:03N 38°23' E 015°24'0 3.9
2018-Oct-12 23:00N 38°23' E 015°25'2 3.8
2018-Oct-12 22:30N 38°22' E 015°27'2 3.7
2018-Oct-12 22:03N 38°22' E 015°29'0 3.7
2018-Oct-12 22:00N 38°22' E 015°29'3 6.8
2018-Oct-12 21:30N 38°21' E 015°33'3 7.2
2018-Oct-12 21:03N 38°19' E 015°36'0 7.6
2018-Oct-12 21:00N 38°19' E 015°37'4 7.1
2018-Oct-12 20:30N 38°17' E 015°41'3 6.0
2018-Oct-12 19:57N 38°15' E 015°39'4 8.1
2018-Oct-12 19:29N 38°11' E 015°37'4 8.5
2018-Oct-12 19:01N 38°07' E 015°36'0 9.0
2018-Oct-12 19:00N 38°07' E 015°36'4 8.3
2018-Oct-12 18:30N 38°03' E 015°34'4 8.0
2018-Oct-12 18:03N 37°60' E 015°33'0 8.2
2018-Oct-12 18:00N 37°60' E 015°33'11 8.2
2018-Oct-12 16:38N 37°52' E 015°21'  
2018-Oct-10 04:57N 37°48' E 015°21'0 0.1
2018-Oct-10 03:39N 37°48' E 015°21'1 7.2
2018-Oct-10 03:28N 37°49' E 015°21'5 7.2
2018-Oct-10 02:42N 37°54' E 015°25'1 6.9
2018-Oct-10 02:30N 37°55' E 015°25'3 6.8
2018-Oct-10 02:01N 37°58' E 015°27'4 6.9
2018-Oct-10 01:27N 38°02' E 015°30'3 7.4
2018-Oct-10 01:03N 38°04' E 015°32'0 7.3
2018-Oct-10 01:00N 38°05' E 015°32'5 9.2
2018-Oct-10 00:30N 38°09' E 015°34'510.4
2018-Oct-10 00:04N 38°13' E 015°36'111.0
2018-Oct-10 00:00N 38°14' E 015°36'5 9.7
2018-Oct-09 23:31N 38°18' E 015°40'510.8
2018-Oct-09 23:03N 38°22' E 015°36'110.8
2018-Oct-09 23:00N 38°22' E 015°35'511.0
2018-Oct-09 22:30N 38°26' E 015°31'511.2
2018-Oct-09 22:03N 38°31' E 015°27'011.4
2018-Oct-09 22:00N 38°31' E 015°27'611.3
2018-Oct-09 21:28N 38°36' E 015°22'511.4
2018-Oct-09 21:03N 38°39' E 015°18'11 3.2
2018-Oct-09 17:41N 38°49' E 015°11'6 3.3
2018-Oct-09 15:53N 38°44' E 015°15'1 1.2
2018-Oct-09 15:19N 38°44' E 015°16'  
Track history (hours):
 
Tides and Currents Weather Stations Pressure Air Temp Water Temp Dewpoint Dewpoint Depression Visibility Wind Speed Wind Dir Waves Ship Positions

Le Ponant

Operator: Compangy des Iles du Ponant

Last reported at 2018-Oct-19 14:21 UTC. Time now 2018-Oct-20 02:36 UTC.
Position N 43°21' E 005°20'.

Length 89 m; draft 4.2 m.

Type: Passenger vessel. MMSI: 227186000.

Date/timePositionNaut miles runAvg speedWind from/ knotsBaromVisibWave heightAir tempDewpointWater temp
2018-Oct-19 14:21N 43°21' E 005°20'4 4.4
2018-Oct-19 13:30N 43°18' E 005°22'0 0.0
2018-Oct-19 13:03N 43°18' E 005°22'0 0.0
2018-Oct-19 13:00N 43°18' E 005°22'0 0.0
2018-Oct-19 12:24N 43°18' E 005°22'0 0.0
2018-Oct-19 11:51N 43°18' E 005°22'0 0.0
2018-Oct-19 11:22N 43°18' E 005°22'0 0.0
2018-Oct-19 11:03N 43°18' E 005°22'0 0.1
2018-Oct-19 11:00N 43°18' E 005°22'0 0.0
2018-Oct-19 10:30N 43°18' E 005°22'0 0.0
2018-Oct-19 09:52N 43°18' E 005°22'0 0.0
2018-Oct-19 09:17N 43°18' E 005°22'0 0.0
2018-Oct-19 09:01N 43°18' E 005°22'0 0.0
2018-Oct-19 08:48N 43°18' E 005°22'0 0.0
2018-Oct-19 08:25N 43°18' E 005°22'0 0.0
2018-Oct-19 07:59N 43°18' E 005°22'0 0.0
2018-Oct-19 07:30N 43°18' E 005°22'0 0.0
2018-Oct-19 07:02N 43°18' E 005°22'0 0.0
2018-Oct-19 06:59N 43°18' E 005°22'0 0.0
2018-Oct-19 06:24N 43°18' E 005°22'0 0.0
2018-Oct-19 06:03N 43°18' E 005°22'0 0.1
2018-Oct-19 05:59N 43°18' E 005°22'0 0.5
2018-Oct-19 05:30N 43°18' E 005°22'1 1.4
2018-Oct-19 05:03N 43°18' E 005°21'0 3.8
2018-Oct-19 05:00N 43°18' E 005°21'3 6.0
2018-Oct-19 04:30N 43°16' E 005°18'64 7.0
2018-Oct-18 19:21N 43°07' E 006°45'310.9
2018-Oct-18 19:02N 43°10' E 006°49'110.9
2018-Oct-18 18:59N 43°10' E 006°49'510.9
2018-Oct-18 18:30N 43°14' E 006°53'510.7
2018-Oct-18 18:03N 43°19' E 006°57'110.5
2018-Oct-18 18:00N 43°19' E 006°57'510.5
2018-Oct-18 17:30N 43°23' E 007°01'2 4.2
2018-Oct-18 17:04N 43°25' E 007°03'111.6
2018-Oct-18 17:00N 43°25' E 007°03'611.8
2018-Oct-18 16:30N 43°30' E 007°08'511.8
2018-Oct-18 16:03N 43°35' E 007°12'111.7
2018-Oct-18 16:00N 43°35' E 007°12'611.5
2018-Oct-18 15:30N 43°40' E 007°17'2 3.4
2018-Oct-18 15:00N 43°42' E 007°17'0 0.0
2018-Oct-18 14:01N 43°42' E 007°17'0 0.0
2018-Oct-18 13:58N 43°42' E 007°17'0 0.0
2018-Oct-18 13:28N 43°42' E 007°17'0 0.0
2018-Oct-18 13:00N 43°42' E 007°17'0 0.0
2018-Oct-18 12:30N 43°42' E 007°17'0 0.0
2018-Oct-18 12:00N 43°42' E 007°17'0 0.0
2018-Oct-18 11:30N 43°42' E 007°17'0 0.0
2018-Oct-18 11:03N 43°42' E 007°17'0 0.0
2018-Oct-18 11:00N 43°42' E 007°17'0 0.0
2018-Oct-18 10:30N 43°42' E 007°17'0 0.0
2018-Oct-18 10:01N 43°42' E 007°17'0 0.0
2018-Oct-18 09:58N 43°42' E 007°17'0 0.0
2018-Oct-18 09:30N 43°42' E 007°17'0 0.0
2018-Oct-18 09:03N 43°42' E 007°17'0 0.0
2018-Oct-18 08:57N 43°42' E 007°17'0 0.0
2018-Oct-18 08:30N 43°42' E 007°17'0 0.0
2018-Oct-18 08:03N 43°42' E 007°17'0 0.0
2018-Oct-18 08:00N 43°42' E 007°17'0 0.0
2018-Oct-18 07:30N 43°42' E 007°17'0 0.0
2018-Oct-18 07:03N 43°42' E 007°17'0 0.0
2018-Oct-18 07:00N 43°42' E 007°17'0 0.0
2018-Oct-18 06:30N 43°42' E 007°17'0 0.0
2018-Oct-18 06:03N 43°42' E 007°17'0 0.0
2018-Oct-18 06:00N 43°42' E 007°17'1 2.0
2018-Oct-18 05:30N 43°41' E 007°18'2 3.7
2018-Oct-18 05:03N 43°39' E 007°17'0 6.3
2018-Oct-18 05:00N 43°39' E 007°16'1 1.5
2018-Oct-18 04:30N 43°39' E 007°17'3 6.9
2018-Oct-18 04:03N 43°38' E 007°22'0 8.1
2018-Oct-18 04:00N 43°38' E 007°22'4 8.3
2018-Oct-18 03:30N 43°38' E 007°28'4 8.6
2018-Oct-18 03:03N 43°38' E 007°33'0 8.6
2018-Oct-18 03:00N 43°38' E 007°34'4 8.5
2018-Oct-18 02:30N 43°38' E 007°40'4 8.4
2018-Oct-18 02:03N 43°36' E 007°45'0 8.3
2018-Oct-18 02:00N 43°36' E 007°45'5 9.8
2018-Oct-18 01:30N 43°35' E 007°52'511.2
2018-Oct-18 01:03N 43°33' E 007°58'110.9
2018-Oct-18 01:00N 43°33' E 007°59'510.6
2018-Oct-18 00:30N 43°32' E 008°06'510.5
2018-Oct-18 00:03N 43°30' E 008°12'110.4
2018-Oct-18 00:00N 43°30' E 008°13'510.4
2018-Oct-17 23:30N 43°29' E 008°20'510.1
2018-Oct-17 23:03N 43°28' E 008°26'110.2
2018-Oct-17 22:59N 43°28' E 008°27'510.1
2018-Oct-17 22:29N 43°28' E 008°34'410.0
2018-Oct-17 22:03N 43°27' E 008°40'110.2
2018-Oct-17 22:00N 43°27' E 008°41'510.3
2018-Oct-17 21:30N 43°26' E 008°48'510.7
2018-Oct-17 21:03N 43°25' E 008°54'110.7
2018-Oct-17 21:00N 43°25' E 008°55'510.7
2018-Oct-17 20:30N 43°24' E 009°02'510.7
2018-Oct-17 20:03N 43°24' E 009°08'110.7
2018-Oct-17 20:00N 43°23' E 009°09'510.9
2018-Oct-17 19:30N 43°22' E 009°17'511.1
2018-Oct-17 19:03N 43°22' E 009°23'111.1
2018-Oct-17 19:00N 43°22' E 009°24'611.0
2018-Oct-17 18:30N 43°21' E 009°32'910.8
2018-Oct-17 17:38N 43°16' E 009°43'111.1
2018-Oct-17 17:30N 43°15' E 009°44'511.0
2018-Oct-17 17:02N 43°12' E 009°50'010.9
2018-Oct-17 17:00N 43°12' E 009°51'510.7
2018-Oct-17 16:30N 43°09' E 009°57'26 2.4
2018-Oct-17 05:42N 42°49' E 010°20'0 2.3
2018-Oct-17 05:31N 42°49' E 010°20'5 6.5
2018-Oct-17 04:45N 42°52' E 010°15'2 7.4
2018-Oct-17 04:29N 42°52' E 010°13'8 9.2
2018-Oct-17 03:37N 42°52' E 010°02'110.9
2018-Oct-17 03:30N 42°51' E 010°01'5510.5
2018-Oct-16 22:19N 41°58' E 009°43'310.0
2018-Oct-16 22:03N 41°55' E 009°42'110.0
2018-Oct-16 21:59N 41°54' E 009°42'193 4.2
2018-Oct-14 23:49N 40°38' E 013°37'2 7.2
2018-Oct-14 23:29N 40°37' E 013°40'3 7.4
2018-Oct-14 23:03N 40°35' E 013°44'0 7.2
2018-Oct-14 22:59N 40°35' E 013°44'4 7.5
2018-Oct-14 22:30N 40°33' E 013°49'2 3.9
2018-Oct-14 22:04N 40°33' E 013°51'0 1.8
2018-Oct-14 22:00N 40°33' E 013°51'3 6.5
2018-Oct-14 21:30N 40°31' E 013°54'3 7.0
2018-Oct-14 21:03N 40°30' E 013°58'0 7.3
2018-Oct-14 21:00N 40°30' E 013°59'6 7.9
2018-Oct-14 20:18N 40°27' E 014°05'2 8.5
2018-Oct-14 20:03N 40°26' E 014°08'1 8.3
2018-Oct-14 19:58N 40°26' E 014°09'4 8.0
2018-Oct-14 19:30N 40°25' E 014°13'3 7.6
2018-Oct-14 19:03N 40°27' E 014°17'0 7.7
2018-Oct-14 19:00N 40°27' E 014°18'4 7.8
2018-Oct-14 18:30N 40°29' E 014°22'3 7.2
2018-Oct-14 18:03N 40°31' E 014°25'0 7.5
2018-Oct-14 18:00N 40°31' E 014°26'4 7.4
2018-Oct-14 17:30N 40°34' E 014°28'3 6.7
2018-Oct-14 17:03N 40°37' E 014°30'0 4.6
2018-Oct-14 17:00N 40°37' E 014°30'3 5.1
2018-Oct-14 16:25N 40°37' E 014°34'2 0.2
2018-Oct-14 06:37N 40°37' E 014°36'0 3.9
2018-Oct-14 06:30N 40°36' E 014°36'510.3
2018-Oct-14 06:03N 40°32' E 014°38'110.2
2018-Oct-14 06:00N 40°31' E 014°38'7 9.7
2018-Oct-14 05:18N 40°25' E 014°40'3 9.0
2018-Oct-14 04:59N 40°22' E 014°41'510.3
2018-Oct-14 04:28N 40°17' E 014°43'95 7.0
2018-Oct-13 14:56N 38°45' E 015°17'0 0.8
2018-Oct-13 14:23N 38°45' E 015°17'3 6.4
2018-Oct-13 13:57N 38°44' E 015°14'510.6
2018-Oct-13 13:29N 38°40' E 015°10'510.6
2018-Oct-13 13:03N 38°36' E 015°06'110.7
2018-Oct-13 12:58N 38°36' E 015°06'510.3
2018-Oct-13 12:27N 38°31' E 015°02'5 1.2
2018-Oct-13 08:28N 38°28' E 014°58'0 0.0
2018-Oct-13 07:41N 38°28' E 014°58'0 0.0
2018-Oct-13 05:51N 38°28' E 014°58'0 0.4
2018-Oct-13 05:30N 38°28' E 014°58'3 3.8
2018-Oct-13 04:43N 38°27' E 015°01'3 4.7
2018-Oct-13 04:07N 38°27' E 015°05'1 4.7
2018-Oct-13 03:55N 38°27' E 015°06'2 4.4
2018-Oct-13 03:30N 38°26' E 015°08'1 2.5
2018-Oct-13 03:01N 38°26' E 015°07'0 3.5
2018-Oct-13 03:00N 38°26' E 015°07'0 0.6
2018-Oct-13 02:29N 38°26' E 015°07'2 4.1
2018-Oct-13 02:01N 38°26' E 015°09'0 4.1
2018-Oct-13 01:58N 38°26' E 015°10'2 4.0
2018-Oct-13 01:28N 38°25' E 015°12'2 4.0
2018-Oct-13 00:57N 38°25' E 015°15'2 3.8
2018-Oct-13 00:27N 38°24' E 015°17'2 4.1
2018-Oct-13 00:03N 38°24' E 015°19'0 4.3
2018-Oct-13 00:00N 38°24' E 015°19'2 4.4
2018-Oct-12 23:30N 38°23' E 015°22'2 4.1
2018-Oct-12 23:03N 38°23' E 015°24'0 3.9
2018-Oct-12 23:00N 38°23' E 015°25'2 3.8
2018-Oct-12 22:30N 38°22' E 015°27'2 3.7
2018-Oct-12 22:03N 38°22' E 015°29'0 3.7
2018-Oct-12 22:00N 38°22' E 015°29'3 6.8
2018-Oct-12 21:30N 38°21' E 015°33'3 7.2
2018-Oct-12 21:03N 38°19' E 015°36'0 7.6
2018-Oct-12 21:00N 38°19' E 015°37'4 7.1
2018-Oct-12 20:30N 38°17' E 015°41'3 6.0
2018-Oct-12 19:57N 38°15' E 015°39'4 8.1
2018-Oct-12 19:29N 38°11' E 015°37'4 8.5
2018-Oct-12 19:01N 38°07' E 015°36'0 9.0
2018-Oct-12 19:00N 38°07' E 015°36'4 8.3
2018-Oct-12 18:30N 38°03' E 015°34'4 8.0
2018-Oct-12 18:03N 37°60' E 015°33'0 8.2
2018-Oct-12 18:00N 37°60' E 015°33'11 8.2
2018-Oct-12 16:38N 37°52' E 015°21'  
2018-Oct-10 04:57N 37°48' E 015°21'0 0.1
2018-Oct-10 03:39N 37°48' E 015°21'1 7.2
2018-Oct-10 03:28N 37°49' E 015°21'5 7.2
2018-Oct-10 02:42N 37°54' E 015°25'1 6.9
2018-Oct-10 02:30N 37°55' E 015°25'3 6.8
2018-Oct-10 02:01N 37°58' E 015°27'4 6.9
2018-Oct-10 01:27N 38°02' E 015°30'3 7.4
2018-Oct-10 01:03N 38°04' E 015°32'0 7.3
2018-Oct-10 01:00N 38°05' E 015°32'5 9.2
2018-Oct-10 00:30N 38°09' E 015°34'510.4
2018-Oct-10 00:04N 38°13' E 015°36'111.0
2018-Oct-10 00:00N 38°14' E 015°36'5 9.7
2018-Oct-09 23:31N 38°18' E 015°40'510.8
2018-Oct-09 23:03N 38°22' E 015°36'110.8
2018-Oct-09 23:00N 38°22' E 015°35'511.0
2018-Oct-09 22:30N 38°26' E 015°31'511.2
2018-Oct-09 22:03N 38°31' E 015°27'011.4
2018-Oct-09 22:00N 38°31' E 015°27'611.3
2018-Oct-09 21:28N 38°36' E 015°22'511.4
2018-Oct-09 21:03N 38°39' E 015°18'11 3.2
2018-Oct-09 17:41N 38°49' E 015°11'6 3.3
2018-Oct-09 15:53N 38°44' E 015°15'1 1.2
2018-Oct-09 15:19N 38°44' E 015°16'  

Dump ship's entire track history